Terminal Aerodrome Forecast
Issued by NWS Newport/Morehead City, NC

Home | Current Version | Previous Version | Graphics & Text | Print | Product List | Glossary On
Versions: 1 2 3 4 5 6 7 8 9 10 11 12 13 14 15 16
000
FTUS42 KMHX 301737
TAFEWN
TAF
KEWN 301737Z 3018/3118 16006KT P6SM SCT050
     FM310600 00000KT 6SM BR SCT008 SCT020
     FM311230 18005KT P6SM SCT035=

USA.gov is the U.S. government's official web portal to all federal, state and local government web resources and services.